createdAt,value
2022-08-17T00:00:59.050Z,99574.56
2022-08-17T00:01:51.611Z,99568.69
2022-08-17T00:02:43.085Z,99580.13
2022-08-17T00:03:25.045Z,99582.69
2022-08-17T00:04:12.048Z,99582.69
2022-08-17T00:04:50.464Z,99586.56
2022-08-17T00:05:43.938Z,99579.25
2022-08-17T00:06:29.991Z,99580.09
2022-08-17T00:07:23.917Z,99588.75
2022-08-17T00:08:18.990Z,99572.78
2022-08-17T00:09:18.746Z,99587.03
2022-08-17T00:10:12.935Z,99589.78
2022-08-17T00:11:07.954Z,99598.50
2022-08-17T00:12:35.058Z,99595.09
2022-08-17T00:12:53.204Z,99592.19
2022-08-17T00:13:56.928Z,99587.38
2022-08-17T00:14:31.111Z,99582.16
2022-08-17T00:15:19.928Z,99585.94
2022-08-17T00:15:54.038Z,99585.50
2022-08-17T00:16:56.375Z,99586.38
2022-08-17T00:17:38.033Z,99587.84
2022-08-17T00:19:00.936Z,99590.34
2022-08-17T00:19:45.985Z,99591.00
2022-08-17T00:20:39.990Z,99588.25
2022-08-17T00:21:56.399Z,99589.53
2022-08-17T00:22:50.288Z,99583.41
2022-08-17T00:23:49.084Z,99593.25
2022-08-17T00:24:43.019Z,99586.25
2022-08-17T00:25:37.002Z,99596.34
2022-08-17T00:26:34.554Z,99593.00
2022-08-17T00:27:37.958Z,99589.03
2022-08-17T00:28:18.935Z,99594.25
2022-08-17T00:29:00.969Z,99588.75
2022-08-17T00:29:40.897Z,99570.06
2022-08-17T00:30:21.009Z,99592.19
2022-08-17T00:31:01.920Z,99579.50
2022-08-17T00:31:43.015Z,99590.53
2022-08-17T00:33:15.192Z,99588.84
2022-08-17T00:33:40.955Z,99593.09
2022-08-17T00:34:34.924Z,99591.38
2022-08-17T00:35:31.885Z,99590.16
2022-08-17T00:36:27.920Z,99591.84
2022-08-17T00:37:21.927Z,99583.41
2022-08-17T00:38:16.932Z,99594.34
2022-08-17T00:39:04.040Z,99585.88
2022-08-17T00:39:38.606Z,99582.09
2022-08-17T00:40:26.895Z,99564.88
2022-08-17T00:41:27.073Z,99583.66
2022-08-17T00:42:24.499Z,99589.00
2022-08-17T00:43:00.036Z,99588.56
2022-08-17T00:43:53.009Z,99589.00
2022-08-17T00:44:33.970Z,99590.22
2022-08-17T00:45:31.072Z,99577.81
2022-08-17T00:46:42.885Z,99595.31
2022-08-17T00:47:36.928Z,99578.84
2022-08-17T00:48:31.018Z,99582.19
2022-08-17T00:49:30.041Z,99589.78
2022-08-17T00:50:13.940Z,99580.75
2022-08-17T00:51:13.988Z,99586.38
2022-08-17T00:52:02.889Z,99587.41
2022-08-17T00:53:00.957Z,99578.97
2022-08-17T00:53:45.887Z,99585.53
2022-08-17T00:54:33.253Z,99581.09
2022-08-17T00:55:22.930Z,99583.22
2022-08-17T00:56:05.986Z,99583.63
2022-08-17T00:56:57.895Z,99582.16
2022-08-17T00:57:42.989Z,99576.47
2022-08-17T00:58:36.241Z,99581.31
2022-08-17T00:59:19.988Z,99577.72
2022-08-17T01:00:06.887Z,99572.03
2022-08-17T01:00:49.971Z,99573.53
2022-08-17T01:01:23.988Z,99573.06
2022-08-17T01:02:14.857Z,99572.66
2022-08-17T01:02:51.078Z,99565.47
2022-08-17T01:03:37.882Z,99571.16
2022-08-17T01:04:11.998Z,99562.53
2022-08-17T01:04:59.912Z,99562.72
2022-08-17T01:05:38.861Z,99574.38
2022-08-17T01:06:23.914Z,99569.00
2022-08-17T01:07:04.961Z,99573.16
2022-08-17T01:07:44.865Z,99568.59
2022-08-17T01:08:25.995Z,99557.88
2022-08-17T01:09:07.905Z,99569.91
2022-08-17T01:09:49.014Z,99570.78
2022-08-17T01:11:00.335Z,99569.53
2022-08-17T01:11:47.041Z,99562.41
2022-08-17T01:12:40.886Z,99572.50
2022-08-17T01:13:40.835Z,99573.75
2022-08-17T01:14:37.881Z,99559.38
2022-08-17T01:15:31.888Z,99571.63
2022-08-17T01:16:50.966Z,99563.63
2022-08-17T01:17:32.937Z,99578.00
2022-08-17T01:18:15.047Z,99579.50
2022-08-17T01:19:00.131Z,99580.56
2022-08-17T01:19:46.112Z,99568.34
2022-08-17T01:20:25.958Z,99578.47
2022-08-17T01:21:14.008Z,99582.28
2022-08-17T01:22:03.942Z,99585.22
2022-08-17T01:22:44.079Z,99574.94
2022-08-17T01:23:29.959Z,99581.91
2022-08-17T01:24:16.132Z,99583.59
2022-08-17T01:25:07.887Z,99585.72
2022-08-17T01:25:49.184Z,99581.47
2022-08-17T01:26:31.096Z,99582.97
2022-08-17T01:27:22.936Z,99586.09
2022-08-17T01:28:52.540Z,99585.06
2022-08-17T01:29:32.899Z,99577.13
2022-08-17T01:30:56.978Z,99580.75
2022-08-17T01:31:50.179Z,99581.38
2022-08-17T01:32:38.889Z,99573.81
2022-08-17T01:33:13.407Z,99585.38
2022-08-17T01:34:09.031Z,99557.97
2022-08-17T01:34:44.327Z,99585.19
2022-08-17T01:35:38.927Z,99585.13
2022-08-17T01:36:14.035Z,99587.06
2022-08-17T01:37:00.945Z,99583.25
2022-08-17T01:37:52.009Z,99579.88
2022-08-17T01:38:53.934Z,99585.75
2022-08-17T01:39:54.969Z,99580.72
2022-08-17T01:40:57.333Z,99579.91
2022-08-17T01:41:54.461Z,99569.78
2022-08-17T01:43:26.725Z,99560.91
2022-08-17T01:46:20.145Z,99551.50
2022-08-17T01:47:31.686Z,99559.28
2022-08-17T01:48:54.958Z,99564.75
2022-08-17T01:49:28.941Z,99575.28
2022-08-17T01:50:21.914Z,99590.50
2022-08-17T01:51:00.350Z,99587.53
2022-08-17T01:51:52.949Z,99580.75
2022-08-17T01:52:30.729Z,99566.84
2022-08-17T01:53:31.908Z,99585.00
2022-08-17T01:54:16.877Z,99582.47
2022-08-17T01:55:10.968Z,99565.63
2022-08-17T01:56:12.008Z,99589.44
2022-08-17T01:57:06.930Z,99580.78
2022-08-17T01:58:01.316Z,99587.94
2022-08-17T01:58:56.876Z,99558.00
2022-08-17T01:59:36.923Z,99581.59
2022-08-17T02:00:19.296Z,99573.59
2022-08-17T02:01:01.663Z,99580.38
2022-08-17T02:01:43.594Z,99588.78
2022-08-17T02:02:31.304Z,99583.31
2022-08-17T02:03:13.034Z,99580.16
2022-08-17T02:04:00.986Z,99577.84
2022-08-17T02:04:52.172Z,99579.56
2022-08-17T02:05:45.929Z,99585.47
2022-08-17T02:06:52.697Z,99581.44
2022-08-17T02:07:59.857Z,99582.91
2022-08-17T02:09:01.957Z,99584.63
2022-08-17T02:09:56.968Z,99576.78
2022-08-17T02:10:51.157Z,99580.38
2022-08-17T02:11:48.836Z,99576.59
2022-08-17T02:12:44.939Z,99580.38
2022-08-17T02:13:39.921Z,99584.63
2022-08-17T02:14:33.878Z,99580.38
2022-08-17T02:15:21.905Z,99573.59
2022-08-17T02:15:55.924Z,99574.03
2022-08-17T02:16:46.901Z,99573.19
2022-08-17T02:17:22.138Z,99573.22
2022-08-17T02:18:44.013Z,99531.88
2022-08-17T02:19:50.739Z,99557.63
2022-08-17T02:20:42.577Z,99578.28
2022-08-17T02:21:16.990Z,99572.34
2022-08-17T02:22:03.947Z,99575.09
2022-08-17T02:22:37.969Z,99566.66
2022-08-17T02:23:25.889Z,99570.69
2022-08-17T02:24:00.209Z,99572.19
2022-08-17T02:24:59.900Z,99580.16
2022-08-17T02:25:38.002Z,99581.69
2022-08-17T02:26:25.701Z,99580.81
2022-08-17T02:27:07.027Z,99575.56
2022-08-17T02:27:49.916Z,99578.72
2022-08-17T02:28:30.095Z,99575.56
2022-08-17T02:29:10.859Z,99571.94
2022-08-17T02:29:53.288Z,99573.66
2022-08-17T02:31:01.909Z,99551.25
2022-08-17T02:31:41.857Z,99570.66
2022-08-17T02:32:27.815Z,99569.81
2022-08-17T02:33:15.797Z,99573.19
2022-08-17T02:34:00.282Z,99558.44
2022-08-17T02:34:51.861Z,99573.19
2022-08-17T02:35:26.978Z,99572.34
2022-08-17T02:36:17.867Z,99562.22
2022-08-17T02:36:59.880Z,99571.50
2022-08-17T02:37:55.475Z,99563.91
2022-08-17T02:38:50.817Z,99572.34
2022-08-17T02:39:44.850Z,99564.94
2022-08-17T02:40:38.866Z,99576.59
2022-08-17T02:41:32.820Z,99574.69
2022-08-17T02:42:21.870Z,99579.91
2022-08-17T02:42:55.905Z,99540.72
2022-08-17T02:43:42.803Z,99550.84
2022-08-17T02:44:35.415Z,99553.78
2022-08-17T02:45:27.883Z,99573.19
2022-08-17T02:46:01.956Z,99572.31
2022-08-17T02:46:48.893Z,99571.72
2022-08-17T02:47:29.908Z,99570.88
2022-08-17T02:48:30.451Z,99580.38
2022-08-17T02:49:25.822Z,99575.75
2022-08-17T02:50:21.812Z,99578.25
2022-08-17T02:51:16.860Z,99576.34
2022-08-17T02:52:12.782Z,99565.59
2022-08-17T02:53:02.517Z,99577.44
2022-08-17T02:53:44.922Z,99573.22
2022-08-17T02:54:40.717Z,99578.47
2022-08-17T02:55:34.251Z,99576.78
2022-08-17T02:56:14.806Z,99567.06
2022-08-17T02:56:55.368Z,99579.72
2022-08-17T02:57:36.839Z,99575.28
2022-08-17T02:58:35.486Z,99573.59
2022-08-17T02:59:09.849Z,99581.22
2022-08-17T02:59:57.790Z,99583.13
2022-08-17T03:00:44.187Z,99571.31
2022-08-17T03:01:30.868Z,99583.97
2022-08-17T03:02:04.968Z,99581.03
2022-08-17T03:02:52.873Z,99568.97
2022-08-17T03:03:33.837Z,99582.09
2022-08-17T03:04:27.786Z,99582.94
2022-08-17T03:05:24.849Z,99569.00
2022-08-17T03:06:20.806Z,99587.97
2022-08-17T03:07:14.811Z,99573.22
2022-08-17T03:08:12.947Z,99565.63
2022-08-17T03:08:54.845Z,99568.34
2022-08-17T03:09:35.219Z,99568.13
2022-08-17T03:10:16.805Z,99578.69
2022-08-17T03:10:56.889Z,99574.63
2022-08-17T03:11:36.846Z,99576.53
2022-08-17T03:12:21.073Z,99582.03
2022-08-17T03:13:01.814Z,99578.44
2022-08-17T03:13:41.859Z,99576.53
2022-08-17T03:14:21.826Z,99567.25
2022-08-17T03:15:17.865Z,99572.31
2022-08-17T03:15:58.866Z,99582.88
2022-08-17T03:16:38.961Z,99576.56
2022-08-17T03:17:19.795Z,99583.31
2022-08-17T03:18:01.877Z,99581.03
2022-08-17T03:18:42.772Z,99588.81
2022-08-17T03:19:29.886Z,99583.97
2022-08-17T03:20:25.880Z,99591.16
2022-08-17T03:21:20.804Z,99593.25
2022-08-17T03:22:36.186Z,99583.78
2022-08-17T03:23:29.556Z,99594.53
2022-08-17T03:24:26.814Z,99586.34
2022-08-17T03:25:10.589Z,99594.34
2022-08-17T03:25:53.139Z,99592.63
2022-08-17T03:26:33.814Z,99596.06
2022-08-17T03:27:14.046Z,99598.97
2022-08-17T03:27:54.751Z,99598.34
2022-08-17T03:28:34.849Z,99598.13
2022-08-17T03:29:15.775Z,99591.84
2022-08-17T03:29:55.894Z,99591.41
2022-08-17T03:30:36.811Z,99592.44
2022-08-17T03:31:18.330Z,99599.63
2022-08-17T03:31:59.846Z,99599.63
2022-08-17T03:32:46.919Z,99602.16
2022-08-17T03:33:27.802Z,99605.28
2022-08-17T03:34:07.877Z,99598.56
2022-08-17T03:34:49.805Z,99606.56
2022-08-17T03:35:36.346Z,99603.00
2022-08-17T03:36:17.829Z,99607.84
2022-08-17T03:36:57.836Z,99605.31
2022-08-17T03:37:37.786Z,99610.78
2022-08-17T03:38:18.956Z,99596.84
2022-08-17T03:38:59.817Z,99600.66
2022-08-17T03:39:39.942Z,99603.84
2022-08-17T03:40:34.616Z,99611.22
2022-08-17T03:41:27.846Z,99608.47
2022-08-17T03:42:32.110Z,99605.94
2022-08-17T03:43:27.885Z,99612.06
2022-08-17T03:44:21.793Z,99601.53
2022-08-17T03:45:17.903Z,99616.94
2022-08-17T03:46:35.324Z,99616.53
2022-08-17T03:47:47.820Z,99621.38
2022-08-17T03:49:01.773Z,99622.63
2022-08-17T03:50:13.726Z,99627.91
2022-08-17T03:51:28.730Z,99631.50
2022-08-17T03:52:32.842Z,99616.94
2022-08-17T03:53:36.404Z,99610.81
2022-08-17T03:54:36.737Z,99627.06
2022-08-17T03:55:36.211Z,99629.78
2022-08-17T03:56:35.719Z,99623.03
2022-08-17T03:57:19.050Z,99612.91
2022-08-17T03:57:59.734Z,99629.81
2022-08-17T03:58:39.848Z,99629.19
2022-08-17T03:59:24.745Z,99613.13
2022-08-17T04:00:05.823Z,99634.22
2022-08-17T04:00:46.726Z,99631.50
2022-08-17T04:01:26.964Z,99620.91
2022-08-17T04:02:24.730Z,99610.78
2022-08-17T04:03:11.761Z,99637.38
2022-08-17T04:04:05.713Z,99623.88
2022-08-17T04:05:00.784Z,99612.47
2022-08-17T04:05:54.752Z,99619.25
2022-08-17T04:06:48.771Z,99630.84
2022-08-17T04:07:44.818Z,99631.06
2022-08-17T04:08:31.740Z,99626.81
2022-08-17T04:09:05.769Z,99631.28
2022-08-17T04:09:52.722Z,99625.97
2022-08-17T04:10:26.830Z,99642.25
2022-08-17T04:11:13.719Z,99623.88
2022-08-17T04:11:47.819Z,99628.31
2022-08-17T04:12:36.732Z,99637.81
2022-08-17T04:13:11.175Z,99631.91
2022-08-17T04:13:50.728Z,99634.03
2022-08-17T04:14:36.086Z,99634.00
2022-08-17T04:15:32.801Z,99639.94
2022-08-17T04:16:12.768Z,99637.38
2022-08-17T04:16:52.713Z,99628.09
2022-08-17T04:17:35.786Z,99642.47
2022-08-17T04:18:15.728Z,99631.91
2022-08-17T04:19:02.745Z,99639.50
2022-08-17T04:19:56.716Z,99627.66
2022-08-17T04:20:50.717Z,99621.34
2022-08-17T04:21:45.710Z,99647.91
2022-08-17T04:22:40.700Z,99644.13
2022-08-17T04:23:39.703Z,99639.69
2022-08-17T04:24:26.741Z,99640.34
2022-08-17T04:25:00.794Z,99629.16
2022-08-17T04:25:55.722Z,99635.25
2022-08-17T04:26:52.957Z,99635.06
2022-08-17T04:27:36.708Z,99647.94
2022-08-17T04:28:15.859Z,99652.59
2022-08-17T04:29:04.698Z,99650.03
2022-08-17T04:29:54.255Z,99652.16
2022-08-17T04:30:51.727Z,99641.59
2022-08-17T04:31:45.705Z,99642.88
2022-08-17T04:33:03.452Z,99640.97
2022-08-17T04:33:54.770Z,99660.38
2022-08-17T04:34:48.757Z,99649.19
2022-08-17T04:35:46.701Z,99654.47
2022-08-17T04:36:40.694Z,99655.97
2022-08-17T04:37:44.713Z,99653.44
2022-08-17T04:38:41.706Z,99649.63
2022-08-17T04:39:35.744Z,99653.44
2022-08-17T04:40:35.711Z,99648.78
2022-08-17T04:41:35.363Z,99659.16
2022-08-17T04:42:23.673Z,99655.56
2022-08-17T04:43:10.769Z,99653.25
2022-08-17T04:43:53.706Z,99668.22
2022-08-17T04:44:37.730Z,99667.38
2022-08-17T04:45:18.712Z,99671.19
2022-08-17T04:46:03.718Z,99656.84
2022-08-17T04:46:42.775Z,99661.06
2022-08-17T04:47:29.685Z,99662.72
2022-08-17T04:48:04.219Z,99656.84
2022-08-17T04:48:55.680Z,99665.69
2022-08-17T04:49:29.783Z,99654.72
2022-08-17T04:50:16.713Z,99672.44
2022-08-17T04:50:55.762Z,99670.31
2022-08-17T04:51:56.867Z,99675.59
2022-08-17T04:52:52.847Z,99664.63
2022-08-17T04:53:33.684Z,99662.31
2022-08-17T04:54:25.781Z,99674.34
2022-08-17T04:55:11.679Z,99670.72
2022-08-17T04:55:51.749Z,99672.41
2022-08-17T04:56:33.673Z,99677.50
2022-08-17T04:57:13.789Z,99655.97
2022-08-17T04:57:47.772Z,99668.19
2022-08-17T04:58:34.689Z,99673.47
2022-08-17T04:59:26.798Z,99677.06
2022-08-17T05:00:16.677Z,99662.94
2022-08-17T05:00:50.851Z,99674.50
2022-08-17T05:01:40.722Z,99668.16
2022-08-17T05:02:21.714Z,99679.56
2022-08-17T05:03:15.669Z,99655.94
2022-08-17T05:04:21.114Z,99666.91
2022-08-17T05:05:39.711Z,99660.16
2022-08-17T05:06:34.687Z,99674.94
2022-08-17T05:07:31.607Z,99660.78
2022-08-17T05:08:25.657Z,99655.69
2022-08-17T05:09:19.678Z,99673.22
2022-08-17T05:10:13.685Z,99660.97
2022-08-17T05:11:07.699Z,99673.84
2022-08-17T05:12:02.669Z,99663.50
2022-08-17T05:12:49.838Z,99664.13
2022-08-17T05:13:31.485Z,99676.16
2022-08-17T05:14:19.716Z,99674.47
2022-08-17T05:14:53.731Z,99675.09
2022-08-17T05:15:44.965Z,99652.50
2022-08-17T05:16:21.756Z,99671.50
2022-08-17T05:17:11.149Z,99666.44
2022-08-17T05:17:45.739Z,99657.13
2022-08-17T05:18:26.692Z,99647.00
2022-08-17T05:19:06.773Z,99655.00
2022-08-17T05:19:51.979Z,99660.28
2022-08-17T05:20:33.738Z,99666.81
2022-08-17T05:21:14.653Z,99657.94
2022-08-17T05:21:54.749Z,99655.00
2022-08-17T05:22:35.669Z,99654.56
2022-08-17T05:23:18.778Z,99660.03
2022-08-17T05:23:59.689Z,99671.44
2022-08-17T05:24:43.673Z,99661.47
2022-08-17T05:25:38.671Z,99666.34
2022-08-17T05:26:26.815Z,99665.94
2022-08-17T05:27:07.669Z,99669.50
2022-08-17T05:27:47.727Z,99670.97
2022-08-17T05:28:29.668Z,99664.59
2022-08-17T05:29:16.691Z,99672.63
2022-08-17T05:30:10.658Z,99657.03
2022-08-17T05:31:04.682Z,99661.63
2022-08-17T05:31:58.669Z,99657.38
2022-08-17T05:32:52.738Z,99664.97
2022-08-17T05:33:50.633Z,99652.31
2022-08-17T05:34:37.785Z,99662.44
2022-08-17T05:35:13.833Z,99659.22
2022-08-17T05:36:04.656Z,99656.47
2022-08-17T05:36:44.016Z,99666.59
2022-08-17T05:37:31.654Z,99664.41
2022-08-17T05:38:08.236Z,99667.16
2022-08-17T05:38:56.656Z,99669.91
2022-08-17T05:39:31.863Z,99660.81
2022-08-17T05:40:13.682Z,99669.06
2022-08-17T05:40:55.097Z,99652.31
2022-08-17T05:41:34.637Z,99647.53
2022-08-17T05:42:14.693Z,99664.34
2022-08-17T05:42:58.651Z,99671.94
2022-08-17T05:43:45.744Z,99664.50
2022-08-17T05:44:25.665Z,99674.63
2022-08-17T05:45:05.726Z,99663.47
2022-08-17T05:46:10.728Z,99657.50
2022-08-17T05:46:56.720Z,99676.06
2022-08-17T05:47:37.627Z,99672.06
2022-08-17T05:48:17.707Z,99672.88
2022-08-17T05:49:09.661Z,99671.81
2022-08-17T05:49:49.896Z,99670.56
2022-08-17T05:50:35.672Z,99656.63
2022-08-17T05:51:47.666Z,99671.81
2022-08-17T05:53:01.638Z,99662.66
2022-08-17T05:54:14.621Z,99674.84
2022-08-17T05:55:46.685Z,99677.97
2022-08-17T05:57:11.665Z,99679.22
2022-08-17T05:58:20.652Z,99679.56
2022-08-17T05:59:20.641Z,99682.97
2022-08-17T06:00:31.675Z,99673.72
2022-08-17T06:01:47.627Z,99678.91
2022-08-17T06:03:17.762Z,99677.78
2022-08-17T06:04:09.707Z,99678.22
2022-08-17T06:05:39.634Z,99679.03
2022-08-17T06:06:48.698Z,99680.69
2022-08-17T06:07:55.700Z,99676.88
2022-08-17T06:09:10.661Z,99677.47
2022-08-17T06:09:56.968Z,99669.59
2022-08-17T06:11:25.652Z,99674.28
2022-08-17T06:12:38.834Z,99685.06
2022-08-17T06:14:21.638Z,99681.63
2022-08-17T06:15:36.721Z,99685.88
2022-08-17T06:16:34.375Z,99691.31
2022-08-17T06:17:16.712Z,99678.66
2022-08-17T06:18:09.629Z,99677.38
2022-08-17T06:19:06.436Z,99681.97
2022-08-17T06:19:50.700Z,99677.59
2022-08-17T06:20:24.714Z,99681.34
2022-08-17T06:21:03.709Z,99687.91
2022-08-17T06:21:49.660Z,99687.47
2022-08-17T06:22:27.282Z,99680.28
2022-08-17T06:23:13.133Z,99685.09
2022-08-17T06:24:34.617Z,99674.28
2022-08-17T06:25:32.640Z,99686.47
2022-08-17T06:26:16.329Z,99676.75
2022-08-17T06:27:04.595Z,99689.66
2022-08-17T06:28:17.843Z,99676.03
2022-08-17T06:29:20.617Z,99676.63
2022-08-17T06:30:18.760Z,99683.44
2022-08-17T06:31:08.656Z,99671.69
2022-08-17T06:31:43.676Z,99685.78
2022-08-17T06:32:17.405Z,99674.84
2022-08-17T06:32:59.626Z,99676.44
2022-08-17T06:33:42.721Z,99684.50
2022-08-17T06:34:16.316Z,99680.66
2022-08-17T06:34:57.626Z,99691.38
2022-08-17T06:36:19.639Z,99690.84
2022-08-17T06:37:39.132Z,99683.47
2022-08-17T06:38:54.589Z,99687.06
2022-08-17T06:39:48.852Z,99677.34
2022-08-17T06:41:08.629Z,99675.09
2022-08-17T06:42:09.648Z,99681.38
2022-08-17T06:43:48.008Z,99687.63
2022-08-17T06:44:57.604Z,99680.31
2022-08-17T06:45:49.181Z,99676.88
2022-08-17T06:46:49.666Z,99671.59
2022-08-17T06:47:43.643Z,99679.94
2022-08-17T06:48:41.917Z,99684.13
2022-08-17T06:49:30.493Z,99676.81
2022-08-17T06:50:26.641Z,99675.53
2022-08-17T06:51:29.650Z,99684.06
2022-08-17T06:52:42.137Z,99681.06
2022-08-17T06:53:58.666Z,99685.75
2022-08-17T06:54:41.811Z,99687.19
2022-08-17T06:55:47.304Z,99685.91
2022-08-17T06:56:53.943Z,99674.72
2022-08-17T06:57:35.094Z,99679.63
2022-08-17T06:58:16.313Z,99678.47
2022-08-17T06:58:57.595Z,99677.50
2022-08-17T06:59:54.990Z,99676.78
2022-08-17T07:00:41.710Z,99682.53
2022-08-17T07:01:37.653Z,99681.34
2022-08-17T07:02:20.277Z,99663.09
2022-08-17T07:03:46.584Z,99671.03
2022-08-17T07:04:30.682Z,99675.00
2022-08-17T07:05:12.678Z,99683.78
2022-08-17T07:06:04.591Z,99680.31
2022-08-17T07:06:54.682Z,99675.50
2022-08-17T07:08:03.622Z,99685.34
2022-08-17T07:08:43.658Z,99676.34
2022-08-17T07:09:37.608Z,99676.59
2022-08-17T07:10:12.691Z,99676.13
2022-08-17T07:11:03.575Z,99682.81
2022-08-17T07:11:44.625Z,99673.44
2022-08-17T07:12:36.569Z,99683.19
2022-08-17T07:13:40.656Z,99684.03
2022-08-17T07:15:04.609Z,99679.34
2022-08-17T07:15:48.653Z,99675.84
2022-08-17T07:16:48.564Z,99664.09
2022-08-17T07:17:47.669Z,99677.06
2022-08-17T07:18:39.578Z,99678.50
2022-08-17T07:19:13.665Z,99681.97
2022-08-17T07:20:11.625Z,99680.66
2022-08-17T07:20:50.858Z,99680.97
2022-08-17T07:22:04.602Z,99673.44
2022-08-17T07:22:59.884Z,99681.34
2022-08-17T07:24:39.578Z,99689.28
2022-08-17T07:25:27.603Z,99675.47
2022-08-17T07:26:23.569Z,99692.16
2022-08-17T07:27:21.581Z,99686.28
2022-08-17T07:28:19.604Z,99686.03
2022-08-17T07:29:14.574Z,99676.31
2022-08-17T07:30:22.591Z,99682.84
2022-08-17T07:31:03.599Z,99678.66
2022-08-17T07:31:43.621Z,99679.88
2022-08-17T07:32:33.567Z,99682.63
2022-08-17T07:33:25.710Z,99686.56
2022-08-17T07:34:17.577Z,99683.81
2022-08-17T07:35:41.212Z,99697.16
2022-08-17T07:36:31.590Z,99676.84
2022-08-17T07:37:12.653Z,99681.25
2022-08-17T07:37:59.578Z,99691.84
2022-08-17T07:38:41.614Z,99683.75
2022-08-17T07:39:34.617Z,99676.41
2022-08-17T07:40:57.986Z,99686.84
2022-08-17T07:41:57.442Z,99688.38
2022-08-17T07:42:43.123Z,99686.22
2022-08-17T07:43:34.574Z,99693.91
2022-08-17T07:44:22.662Z,99675.41
2022-08-17T07:45:04.568Z,99676.13
2022-08-17T07:46:18.046Z,99673.94
2022-08-17T07:47:19.632Z,99689.09
2022-08-17T07:48:18.381Z,99677.25
2022-08-17T07:49:06.580Z,99682.41
2022-08-17T07:49:50.705Z,99674.34
2022-08-17T07:50:36.573Z,99689.03
2022-08-17T07:51:29.700Z,99687.78
2022-08-17T07:52:48.196Z,99676.69
2022-08-17T07:53:32.692Z,99691.84
2022-08-17T07:54:21.605Z,99690.22
2022-08-17T07:55:02.428Z,99689.22
2022-08-17T07:55:47.569Z,99684.69
2022-08-17T07:56:48.646Z,99694.25
2022-08-17T07:57:39.646Z,99691.84
2022-08-17T07:58:26.481Z,99675.88
2022-08-17T07:59:24.597Z,99685.44
2022-08-17T08:00:12.785Z,99696.50
2022-08-17T08:01:18.610Z,99688.16
2022-08-17T08:02:30.128Z,99702.75
2022-08-17T08:03:35.875Z,99701.66
2022-08-17T08:04:59.323Z,99701.41
2022-08-17T08:05:49.357Z,99701.91
2022-08-17T08:06:32.742Z,99704.28
2022-08-17T08:07:23.568Z,99695.41
2022-08-17T08:08:11.633Z,99700.75
2022-08-17T08:09:01.645Z,99704.19
2022-08-17T08:09:50.778Z,99705.66
2022-08-17T08:10:47.529Z,99700.84
2022-08-17T08:11:44.444Z,99696.31
2022-08-17T08:12:40.556Z,99699.91
2022-08-17T08:13:30.798Z,99702.91
2022-08-17T08:14:39.585Z,99702.44
2022-08-17T08:15:30.163Z,99705.59
2022-08-17T08:16:32.533Z,99699.75
2022-08-17T08:17:14.631Z,99706.13
2022-08-17T08:18:04.534Z,99701.75
2022-08-17T08:18:55.620Z,99700.41
2022-08-17T08:19:40.890Z,99706.78
2022-08-17T08:20:53.235Z,99707.88
2022-08-17T08:21:37.631Z,99709.63
2022-08-17T08:22:45.548Z,99712.97
2022-08-17T08:23:40.977Z,99710.19
2022-08-17T08:25:04.582Z,99718.53
2022-08-17T08:26:05.241Z,99711.06
2022-08-17T08:27:43.612Z,99715.81
2022-08-17T08:29:10.547Z,99712.41
2022-08-17T08:30:21.607Z,99715.00
2022-08-17T08:31:42.448Z,99714.69
2022-08-17T08:32:50.419Z,99717.50
2022-08-17T08:34:53.394Z,99726.00
2022-08-17T08:35:53.547Z,99714.69
2022-08-17T08:37:02.464Z,99718.88
2022-08-17T08:38:17.561Z,99717.34
2022-08-17T08:39:13.631Z,99720.13
2022-08-17T08:40:17.559Z,99712.63
2022-08-17T08:41:29.581Z,99714.03
2022-08-17T08:42:50.546Z,99717.38
2022-08-17T08:44:11.531Z,99716.31
2022-08-17T08:45:34.574Z,99713.59
2022-08-17T08:47:06.591Z,99721.97
2022-08-17T08:48:23.008Z,99710.22
2022-08-17T08:50:03.962Z,99717.03
2022-08-17T08:51:25.526Z,99718.75
2022-08-17T08:52:44.554Z,99711.53
2022-08-17T08:54:13.524Z,99717.72
2022-08-17T08:55:22.509Z,99707.41
2022-08-17T08:56:59.184Z,99714.69
2022-08-17T08:58:41.091Z,99716.34
2022-08-17T09:00:10.514Z,99725.28
2022-08-17T09:01:08.534Z,99718.09
2022-08-17T09:03:00.499Z,99726.28
2022-08-17T09:04:24.022Z,99725.19
2022-08-17T09:05:29.598Z,99731.31
2022-08-17T09:06:38.812Z,99724.69
2022-08-17T09:07:38.306Z,99728.09
2022-08-17T09:09:03.532Z,99717.28
2022-08-17T09:10:26.578Z,99713.66
2022-08-17T09:12:02.124Z,99719.28
2022-08-17T09:13:31.505Z,99713.19
2022-08-17T09:14:45.187Z,99717.72
2022-08-17T09:15:52.522Z,99711.84
2022-08-17T09:16:58.494Z,99719.06
2022-08-17T09:19:02.414Z,99715.50
2022-08-17T09:19:52.714Z,99709.38
2022-08-17T09:21:05.548Z,99703.78
2022-08-17T09:22:10.494Z,99718.06
2022-08-17T09:23:16.485Z,99709.75
2022-08-17T09:24:27.514Z,99706.69
2022-08-17T09:25:46.509Z,99716.72
2022-08-17T09:27:05.526Z,99720.63
2022-08-17T09:28:13.333Z,99711.72
2022-08-17T09:28:59.488Z,99713.47
2022-08-17T09:29:40.624Z,99715.13
2022-08-17T09:30:21.510Z,99709.47
2022-08-17T09:31:07.570Z,99706.69
2022-08-17T09:32:24.545Z,99717.84
2022-08-17T09:33:11.561Z,99712.84
2022-08-17T09:33:54.501Z,99705.63
2022-08-17T09:34:49.558Z,99720.97
2022-08-17T09:35:37.643Z,99722.13
2022-08-17T09:36:37.538Z,99718.75
2022-08-17T09:37:38.515Z,99711.00
2022-08-17T09:38:46.560Z,99718.44
2022-08-17T09:39:36.553Z,99714.63
2022-08-17T09:40:37.538Z,99715.97
2022-08-17T09:41:31.468Z,99707.34
2022-08-17T09:42:29.150Z,99719.06
2022-08-17T09:43:40.524Z,99712.97
2022-08-17T09:44:46.545Z,99712.22
2022-08-17T09:45:41.498Z,99706.38
2022-08-17T09:46:39.592Z,99718.38
2022-08-17T09:48:11.481Z,99709.75
2022-08-17T09:49:26.505Z,99707.31
2022-08-17T09:51:03.736Z,99713.97
2022-08-17T09:52:05.491Z,99708.16
2022-08-17T09:52:59.480Z,99698.97
2022-08-17T09:53:54.470Z,99705.75
2022-08-17T09:54:45.497Z,99707.69
2022-08-17T09:55:19.543Z,99679.28
2022-08-17T09:56:13.501Z,99703.56
2022-08-17T09:57:32.126Z,99706.66
2022-08-17T09:59:06.474Z,99692.16
2022-08-17T10:00:22.494Z,99695.00
2022-08-17T10:01:24.596Z,99688.81
2022-08-17T10:02:43.450Z,99698.59
2022-08-17T10:04:05.541Z,99692.81
2022-08-17T10:05:11.456Z,99691.66
2022-08-17T10:06:09.494Z,99701.66
2022-08-17T10:07:11.574Z,99703.94
2022-08-17T10:08:09.450Z,99701.63
2022-08-17T10:08:57.323Z,99693.00
2022-08-17T10:10:14.364Z,99704.44
2022-08-17T10:11:03.437Z,99705.59
2022-08-17T10:12:22.558Z,99699.81
2022-08-17T10:13:12.539Z,99702.63
2022-08-17T10:14:24.097Z,99711.25
2022-08-17T10:15:48.624Z,99704.81
2022-08-17T10:16:44.503Z,99706.16
2022-08-17T10:17:48.511Z,99700.63
2022-08-17T10:19:11.464Z,99705.69
2022-08-17T10:20:31.498Z,99700.75
2022-08-17T10:21:47.458Z,99689.63
2022-08-17T10:23:29.486Z,99695.47
2022-08-17T10:25:21.435Z,99695.78
2022-08-17T10:26:24.457Z,99689.69
2022-08-17T10:27:25.451Z,99691.34
2022-08-17T10:28:28.922Z,99694.63
2022-08-17T10:29:16.489Z,99699.75
2022-08-17T10:30:04.411Z,99691.34
2022-08-17T10:31:10.484Z,99694.19
2022-08-17T10:32:07.015Z,99684.41
2022-08-17T10:33:01.453Z,99685.88
2022-08-17T10:34:13.884Z,99692.00
2022-08-17T10:35:16.475Z,99697.00
2022-08-17T10:36:13.513Z,99705.34
2022-08-17T10:37:26.484Z,99688.66
2022-08-17T10:38:19.546Z,99693.44
2022-08-17T10:39:31.477Z,99695.94
2022-08-17T10:40:41.464Z,99702.59
2022-08-17T10:41:46.451Z,99690.34
2022-08-17T10:43:03.446Z,99692.00